Weather at Düsseldorf Airport

Public forecast

Using degrees Celsius for public forecast. Weather courtesy of forecast.io.

Current aviation weather report (METAR) for Düsseldorf Airport

Report is more than 6 hours old.

2022/11/14 15:20 (retrieved 2 years ago)

EDDL 141520Z AUTO 15011KT 9999 FEW018 SCT022 OVC033 09/05 Q1010 NOSIG

Aviation forecast (TAF) for Düsseldorf Airport

Forecast is more than 12 hours old.

2023/02/22 18:28 (retrieved 1 year ago)

TAF EDDL 221700Z 2218/2324 22005KT 9999 BKN030 BECMG 2222/2301 BKN012 BECMG 2301/2304 28006KT BKN007 TEMPO 2304/2311 3500 -RADZ BR BKN004 BECMG 2312/2315 BKN015 BECMG 2315/2318 35005KT TEMPO 2322/2324 BKN012